UAL1388 KIAH-KDFW
Flight info
| Callsign | UAL1388 |
|---|---|
| Flight time | 0h 41m |
| Altitude | 28000 |
| Route | N0397F280 BLTWY7 CRIED BEREE3 |
| Aircraft | B737/M-SDE3GHIRWXYZ/LB1 |
Departure
| Time | 2026-05-05 20:04 |
|---|---|
| Airport | George Bush Intercontinental Airport (KIAH) |
Arrival
| Time | 2026-05-05 20:45 |
|---|---|
| Airport | Dallas Fort Worth International Airport (KDFW) |
| Time | Latitude | Longitude | Altitude | Speed | Heading |
|---|---|---|---|---|---|
| 2026-05-05 19:49 | 29.98942 | -95.34199 | 104 ft | 0 kts | 118° |
| 2026-05-05 19:56 | 29.98951 | -95.34220 | 106 ft | 4 kts | 102° |
| 2026-05-05 19:56 | 29.98950 | -95.34247 | 106 ft | 4 kts | 52° |
| 2026-05-05 19:57 | 29.98931 | -95.34261 | 104 ft | 2 kts | 0° |
| 2026-05-05 19:57 | 29.98911 | -95.34261 | 104 ft | 1 kts | 0° |
| 2026-05-05 19:58 | 29.98918 | -95.34261 | 105 ft | 3 kts | 0° |
| 2026-05-05 19:59 | 29.98966 | -95.34261 | 105 ft | 10 kts | 0° |
| 2026-05-05 19:59 | 29.99056 | -95.34263 | 106 ft | 14 kts | 347° |
| 2026-05-05 19:59 | 29.99086 | -95.34359 | 106 ft | 13 kts | 268° |
| 2026-05-05 19:59 | 29.99085 | -95.34463 | 106 ft | 13 kts | 271° |
| 2026-05-05 20:00 | 29.99085 | -95.34566 | 106 ft | 13 kts | 270° |
| 2026-05-05 20:00 | 29.99085 | -95.34572 | 106 ft | 13 kts | 270° |
| 2026-05-05 20:00 | 29.99085 | -95.34673 | 106 ft | 13 kts | 270° |
| 2026-05-05 20:00 | 29.99085 | -95.34777 | 106 ft | 13 kts | 270° |
| 2026-05-05 20:01 | 29.99084 | -95.34878 | 106 ft | 13 kts | 269° |
| 2026-05-05 20:01 | 29.99089 | -95.34985 | 105 ft | 14 kts | 274° |
| 2026-05-05 20:01 | 29.99091 | -95.35107 | 106 ft | 16 kts | 270° |
| 2026-05-05 20:01 | 29.99091 | -95.35244 | 106 ft | 18 kts | 269° |
| 2026-05-05 20:02 | 29.99090 | -95.35393 | 106 ft | 19 kts | 269° |
| 2026-05-05 20:02 | 29.99063 | -95.35487 | 105 ft | 10 kts | 185° |
| 2026-05-05 20:02 | 29.98988 | -95.35484 | 106 ft | 11 kts | 179° |
| 2026-05-05 20:02 | 29.98909 | -95.35504 | 106 ft | 12 kts | 225° |
| 2026-05-05 20:03 | 29.98867 | -95.35592 | 106 ft | 14 kts | 242° |
| 2026-05-05 20:03 | 29.98822 | -95.35693 | 106 ft | 15 kts | 244° |
| 2026-05-05 20:03 | 29.98744 | -95.35753 | 108 ft | 17 kts | 166° |
| 2026-05-05 20:03 | 29.98492 | -95.35605 | 107 ft | 73 kts | 152° |
| 2026-05-05 20:04 | 29.97850 | -95.35212 | 106 ft | 133 kts | 152° |
| 2026-05-05 20:04 | 29.96921 | -95.34622 | 320 ft | 160 kts | 152° |
| 2026-05-05 20:04 | 29.95944 | -95.34010 | 894 ft | 167 kts | 159° |
| 2026-05-05 20:04 | 29.94798 | -95.33931 | 1405 ft | 177 kts | 199° |
| 2026-05-05 20:05 | 29.93811 | -95.34831 | 1946 ft | 191 kts | 236° |
| 2026-05-05 20:05 | 29.93493 | -95.36400 | 2537 ft | 211 kts | 272° |
| 2026-05-05 20:05 | 29.94065 | -95.37986 | 3317 ft | 226 kts | 304° |
| 2026-05-05 20:05 | 29.95381 | -95.39127 | 3738 ft | 252 kts | 336° |
| 2026-05-05 20:06 | 29.97202 | -95.39438 | 4042 ft | 283 kts | 4° |
| 2026-05-05 20:06 | 29.99192 | -95.39048 | 4694 ft | 292 kts | 11° |
| 2026-05-05 20:06 | 30.01171 | -95.38563 | 5490 ft | 295 kts | 9° |
| 2026-05-05 20:06 | 30.03207 | -95.38480 | 6316 ft | 292 kts | 349° |
| 2026-05-05 20:07 | 30.05218 | -95.38885 | 7105 ft | 294 kts | 345° |
| 2026-05-05 20:07 | 30.07241 | -95.39327 | 7904 ft | 296 kts | 345° |
| 2026-05-05 20:07 | 30.09276 | -95.39761 | 8810 ft | 297 kts | 347° |
| 2026-05-05 20:07 | 30.11305 | -95.40174 | 9702 ft | 301 kts | 345° |
| 2026-05-05 20:08 | 30.13386 | -95.40583 | 10436 ft | 309 kts | 346° |
| 2026-05-05 20:08 | 30.15605 | -95.41011 | 10672 ft | 335 kts | 347° |
| 2026-05-05 20:08 | 30.17970 | -95.41455 | 11162 ft | 349 kts | 347° |
| 2026-05-05 20:08 | 30.20352 | -95.41890 | 11954 ft | 351 kts | 347° |
| 2026-05-05 20:09 | 30.22781 | -95.42326 | 12842 ft | 353 kts | 346° |
| 2026-05-05 20:09 | 30.25224 | -95.42764 | 13653 ft | 356 kts | 346° |
| 2026-05-05 20:09 | 30.27692 | -95.43206 | 14404 ft | 359 kts | 346° |
| 2026-05-05 20:09 | 30.30144 | -95.43645 | 15179 ft | 362 kts | 345° |
| 2026-05-05 20:10 | 30.32655 | -95.44095 | 15948 ft | 366 kts | 345° |
| 2026-05-05 20:10 | 30.35196 | -95.44551 | 16717 ft | 370 kts | 345° |
| 2026-05-05 20:10 | 30.37756 | -95.45011 | 17495 ft | 374 kts | 344° |
| 2026-05-05 20:10 | 30.40344 | -95.45476 | 18242 ft | 377 kts | 344° |
| 2026-05-05 20:11 | 30.42947 | -95.45943 | 18926 ft | 380 kts | 343° |
| 2026-05-05 20:11 | 30.45537 | -95.46407 | 19611 ft | 381 kts | 343° |
| 2026-05-05 20:11 | 30.48170 | -95.46880 | 20310 ft | 383 kts | 343° |
| 2026-05-05 20:11 | 30.50814 | -95.47355 | 20987 ft | 385 kts | 342° |
| 2026-05-05 20:12 | 30.53470 | -95.47834 | 21639 ft | 387 kts | 342° |
| 2026-05-05 20:12 | 30.56145 | -95.48315 | 22355 ft | 388 kts | 342° |
| 2026-05-05 20:12 | 30.58807 | -95.48792 | 23211 ft | 385 kts | 341° |
| 2026-05-05 20:12 | 30.61435 | -95.49271 | 24050 ft | 378 kts | 340° |
| 2026-05-05 20:13 | 30.63978 | -95.49806 | 24746 ft | 375 kts | 339° |
| 2026-05-05 20:13 | 30.66546 | -95.50393 | 25382 ft | 375 kts | 338° |
| 2026-05-05 20:13 | 30.69116 | -95.50993 | 26057 ft | 374 kts | 338° |
| 2026-05-05 20:13 | 30.71663 | -95.51586 | 26785 ft | 372 kts | 338° |
| 2026-05-05 20:14 | 30.74197 | -95.52171 | 27483 ft | 371 kts | 338° |
| 2026-05-05 20:14 | 30.76743 | -95.52759 | 27814 ft | 376 kts | 338° |
| 2026-05-05 20:14 | 30.79327 | -95.53359 | 27868 ft | 388 kts | 338° |
| 2026-05-05 20:14 | 30.82028 | -95.53986 | 27888 ft | 400 kts | 338° |
| 2026-05-05 20:15 | 30.84808 | -95.54626 | 27911 ft | 412 kts | 338° |
| 2026-05-05 20:15 | 30.87627 | -95.55269 | 27875 ft | 422 kts | 339° |
| 2026-05-05 20:15 | 30.90547 | -95.55932 | 27879 ft | 431 kts | 339° |
| 2026-05-05 20:15 | 30.93523 | -95.56605 | 27869 ft | 438 kts | 339° |
| 2026-05-05 20:16 | 30.96544 | -95.57288 | 27842 ft | 445 kts | 339° |
| 2026-05-05 20:16 | 30.99602 | -95.57979 | 27842 ft | 450 kts | 339° |
| 2026-05-05 20:16 | 31.02696 | -95.58680 | 27841 ft | 455 kts | 339° |
| 2026-05-05 20:16 | 31.05783 | -95.59380 | 27838 ft | 459 kts | 339° |
| 2026-05-05 20:17 | 31.08931 | -95.60095 | 27834 ft | 462 kts | 339° |
| 2026-05-05 20:17 | 31.12112 | -95.60819 | 27833 ft | 465 kts | 339° |
| 2026-05-05 20:17 | 31.15300 | -95.61545 | 27841 ft | 467 kts | 339° |
| 2026-05-05 20:17 | 31.18494 | -95.62273 | 27832 ft | 466 kts | 339° |
| 2026-05-05 20:18 | 31.21642 | -95.62990 | 27818 ft | 466 kts | 339° |
| 2026-05-05 20:18 | 31.24824 | -95.63717 | 27822 ft | 466 kts | 339° |
| 2026-05-05 20:18 | 31.28007 | -95.64446 | 27831 ft | 466 kts | 339° |
| 2026-05-05 20:18 | 31.31184 | -95.65174 | 27825 ft | 465 kts | 339° |
| 2026-05-05 20:19 | 31.34362 | -95.65934 | 27817 ft | 462 kts | 336° |
| 2026-05-05 20:19 | 31.37285 | -95.67286 | 27819 ft | 441 kts | 321° |
| 2026-05-05 20:19 | 31.39877 | -95.69165 | 27855 ft | 438 kts | 319° |
| 2026-05-05 20:19 | 31.42461 | -95.71069 | 27830 ft | 439 kts | 319° |
| 2026-05-05 20:20 | 31.45036 | -95.72953 | 27827 ft | 439 kts | 319° |
| 2026-05-05 20:20 | 31.47636 | -95.74840 | 27823 ft | 440 kts | 320° |
| 2026-05-05 20:20 | 31.50252 | -95.76723 | 27819 ft | 440 kts | 320° |
| 2026-05-05 20:20 | 31.52867 | -95.78597 | 27821 ft | 440 kts | 320° |
| 2026-05-05 20:21 | 31.55483 | -95.80467 | 27816 ft | 440 kts | 320° |
| 2026-05-05 20:21 | 31.58082 | -95.82324 | 27814 ft | 440 kts | 320° |
| 2026-05-05 20:21 | 31.60702 | -95.84198 | 27816 ft | 440 kts | 320° |
| 2026-05-05 20:21 | 31.63321 | -95.86072 | 27812 ft | 440 kts | 320° |
| 2026-05-05 20:22 | 31.65935 | -95.87945 | 27821 ft | 440 kts | 320° |
| 2026-05-05 20:22 | 31.68558 | -95.89826 | 27831 ft | 440 kts | 320° |
| 2026-05-05 20:22 | 31.71137 | -95.91677 | 27825 ft | 440 kts | 320° |
| 2026-05-05 20:22 | 31.73753 | -95.93556 | 27820 ft | 440 kts | 320° |
| 2026-05-05 20:23 | 31.76383 | -95.95446 | 27810 ft | 440 kts | 320° |
| 2026-05-05 20:23 | 31.79004 | -95.97331 | 27815 ft | 440 kts | 320° |
| 2026-05-05 20:23 | 31.81586 | -95.99189 | 27812 ft | 440 kts | 320° |
| 2026-05-05 20:23 | 31.84208 | -96.01076 | 27815 ft | 440 kts | 320° |
| 2026-05-05 20:24 | 31.86819 | -96.02959 | 27805 ft | 440 kts | 320° |
| 2026-05-05 20:24 | 31.89434 | -96.04848 | 27810 ft | 440 kts | 320° |
| 2026-05-05 20:24 | 31.92045 | -96.06735 | 27809 ft | 440 kts | 320° |
| 2026-05-05 20:24 | 31.94625 | -96.08602 | 27823 ft | 440 kts | 319° |
| 2026-05-05 20:25 | 31.97238 | -96.10493 | 27814 ft | 440 kts | 319° |
| 2026-05-05 20:25 | 31.99852 | -96.12385 | 27815 ft | 440 kts | 319° |
| 2026-05-05 20:25 | 32.02464 | -96.14273 | 27813 ft | 440 kts | 319° |
| 2026-05-05 20:25 | 32.04192 | -96.15521 | 27803 ft | 438 kts | 319° |
| 2026-05-05 20:26 | 32.06737 | -96.17347 | 27791 ft | 417 kts | 319° |
| 2026-05-05 20:26 | 32.09171 | -96.19093 | 27511 ft | 405 kts | 319° |
| 2026-05-05 20:26 | 32.11554 | -96.20816 | 27027 ft | 399 kts | 319° |
| 2026-05-05 20:26 | 32.13908 | -96.22527 | 26475 ft | 392 kts | 318° |
| 2026-05-05 20:27 | 32.16192 | -96.24189 | 25884 ft | 388 kts | 319° |
| 2026-05-05 20:27 | 32.18482 | -96.25856 | 25301 ft | 384 kts | 319° |
| 2026-05-05 20:27 | 32.20745 | -96.27502 | 24733 ft | 380 kts | 318° |
| 2026-05-05 20:27 | 32.22995 | -96.29139 | 24117 ft | 378 kts | 318° |
| 2026-05-05 20:28 | 32.25237 | -96.30769 | 23512 ft | 376 kts | 319° |
| 2026-05-05 20:28 | 32.27456 | -96.32399 | 22827 ft | 372 kts | 316° |
| 2026-05-05 20:28 | 32.29384 | -96.34269 | 22289 ft | 357 kts | 308° |
| 2026-05-05 20:28 | 32.31156 | -96.36311 | 21775 ft | 353 kts | 307° |
| 2026-05-05 20:29 | 32.32887 | -96.38365 | 21280 ft | 352 kts | 307° |
| 2026-05-05 20:29 | 32.34617 | -96.40414 | 20780 ft | 352 kts | 307° |
| 2026-05-05 20:29 | 32.36363 | -96.42462 | 20285 ft | 353 kts | 307° |
| 2026-05-05 20:29 | 32.38120 | -96.44506 | 19798 ft | 356 kts | 308° |
| 2026-05-05 20:30 | 32.39900 | -96.46565 | 19300 ft | 358 kts | 308° |
| 2026-05-05 20:30 | 32.41691 | -96.48629 | 18789 ft | 360 kts | 308° |
| 2026-05-05 20:30 | 32.43493 | -96.50705 | 18274 ft | 362 kts | 308° |
| 2026-05-05 20:30 | 32.45307 | -96.52793 | 17744 ft | 363 kts | 308° |
| 2026-05-05 20:31 | 32.47090 | -96.54844 | 17201 ft | 358 kts | 308° |
| 2026-05-05 20:31 | 32.48847 | -96.56863 | 16865 ft | 347 kts | 308° |
| 2026-05-05 20:31 | 32.50572 | -96.58840 | 16465 ft | 340 kts | 308° |
| 2026-05-05 20:31 | 32.52262 | -96.60775 | 16052 ft | 334 kts | 308° |
| 2026-05-05 20:32 | 32.53903 | -96.62654 | 15648 ft | 329 kts | 308° |
| 2026-05-05 20:32 | 32.55531 | -96.64520 | 15253 ft | 323 kts | 308° |
| 2026-05-05 20:32 | 32.57144 | -96.66367 | 14880 ft | 319 kts | 308° |
| 2026-05-05 20:32 | 32.58743 | -96.68174 | 14544 ft | 317 kts | 309° |
| 2026-05-05 20:33 | 32.60341 | -96.69972 | 14205 ft | 316 kts | 309° |
| 2026-05-05 20:33 | 32.61938 | -96.71769 | 13854 ft | 314 kts | 309° |
| 2026-05-05 20:33 | 32.63511 | -96.73539 | 13514 ft | 309 kts | 309° |
| 2026-05-05 20:33 | 32.65036 | -96.75258 | 13148 ft | 304 kts | 309° |
| 2026-05-05 20:34 | 32.66548 | -96.76965 | 12962 ft | 294 kts | 309° |
| 2026-05-05 20:34 | 32.67999 | -96.78603 | 12833 ft | 282 kts | 308° |
| 2026-05-05 20:34 | 32.69409 | -96.80202 | 12728 ft | 277 kts | 308° |
| 2026-05-05 20:34 | 32.70799 | -96.81785 | 12649 ft | 275 kts | 308° |
| 2026-05-05 20:35 | 32.72161 | -96.83336 | 12538 ft | 274 kts | 308° |
| 2026-05-05 20:35 | 32.73539 | -96.84903 | 12434 ft | 272 kts | 308° |
| 2026-05-05 20:35 | 32.74899 | -96.86449 | 12317 ft | 267 kts | 308° |
| 2026-05-05 20:35 | 32.76216 | -96.87942 | 12210 ft | 256 kts | 308° |
| 2026-05-05 20:36 | 32.77498 | -96.89397 | 12089 ft | 253 kts | 308° |
| 2026-05-05 20:36 | 32.78799 | -96.90768 | 12001 ft | 256 kts | 320° |
| 2026-05-05 20:36 | 32.80495 | -96.91479 | 12009 ft | 261 kts | 342° |
| 2026-05-05 20:36 | 32.82303 | -96.91605 | 11990 ft | 257 kts | 351° |
| 2026-05-05 20:37 | 32.84073 | -96.91570 | 11969 ft | 251 kts | 352° |
| 2026-05-05 20:37 | 32.85797 | -96.91523 | 11996 ft | 252 kts | 352° |
| 2026-05-05 20:37 | 32.87575 | -96.91487 | 11984 ft | 257 kts | 351° |
| 2026-05-05 20:37 | 32.89370 | -96.91458 | 11778 ft | 256 kts | 352° |
| 2026-05-05 20:38 | 32.91150 | -96.91435 | 11145 ft | 260 kts | 352° |
| 2026-05-05 20:38 | 32.92973 | -96.91418 | 10565 ft | 261 kts | 353° |
| 2026-05-05 20:38 | 32.94783 | -96.91402 | 10043 ft | 258 kts | 353° |
| 2026-05-05 20:38 | 32.96573 | -96.91389 | 9494 ft | 256 kts | 353° |
| 2026-05-05 20:39 | 32.98337 | -96.91376 | 8950 ft | 251 kts | 353° |
| 2026-05-05 20:39 | 33.00075 | -96.91364 | 8352 ft | 249 kts | 353° |
| 2026-05-05 20:39 | 33.01782 | -96.91353 | 7766 ft | 247 kts | 353° |
| 2026-05-05 20:39 | 33.03454 | -96.91540 | 7215 ft | 234 kts | 334° |
| 2026-05-05 20:40 | 33.04749 | -96.92576 | 6621 ft | 222 kts | 307° |
| 2026-05-05 20:40 | 33.05722 | -96.93984 | 6135 ft | 219 kts | 303° |
| 2026-05-05 20:40 | 33.06645 | -96.95418 | 5578 ft | 218 kts | 303° |
| 2026-05-05 20:40 | 33.07550 | -96.96868 | 5038 ft | 216 kts | 303° |
| 2026-05-05 20:41 | 33.08385 | -96.98255 | 4881 ft | 194 kts | 296° |
| 2026-05-05 20:41 | 33.08648 | -96.99673 | 4709 ft | 169 kts | 260° |
| 2026-05-05 20:41 | 33.08075 | -97.00854 | 4251 ft | 171 kts | 220° |
| 2026-05-05 20:41 | 33.07047 | -97.01614 | 3786 ft | 174 kts | 213° |
| 2026-05-05 20:42 | 33.05988 | -97.02283 | 3381 ft | 173 kts | 207° |
| 2026-05-05 20:42 | 33.04771 | -97.02483 | 3119 ft | 177 kts | 186° |
| 2026-05-05 20:42 | 33.03533 | -97.02518 | 2845 ft | 178 kts | 186° |
| 2026-05-05 20:42 | 33.02282 | -97.02538 | 2603 ft | 179 kts | 186° |
| 2026-05-05 20:43 | 33.01028 | -97.02547 | 2374 ft | 179 kts | 185° |
| 2026-05-05 20:43 | 32.99796 | -97.02552 | 2136 ft | 175 kts | 186° |
| 2026-05-05 20:43 | 32.98582 | -97.02560 | 1944 ft | 181 kts | 184° |
| 2026-05-05 20:43 | 32.97342 | -97.02565 | 1684 ft | 174 kts | 187° |
| 2026-05-05 20:44 | 32.96194 | -97.02570 | 1503 ft | 159 kts | 184° |
| 2026-05-05 20:44 | 32.95137 | -97.02580 | 1308 ft | 145 kts | 183° |
| 2026-05-05 20:44 | 32.94159 | -97.02570 | 1069 ft | 138 kts | 182° |
| 2026-05-05 20:44 | 32.93150 | -97.02568 | 929 ft | 145 kts | 185° |
| 2026-05-05 20:45 | 32.91226 | -97.02600 | 568 ft | 126 kts | 180° |
| 2026-05-05 20:45 | 32.90479 | -97.02603 | 574 ft | 85 kts | 180° |
| 2026-05-05 20:45 | 32.90044 | -97.02623 | 570 ft | 40 kts | 194° |
| 2026-05-05 20:46 | 32.89843 | -97.02740 | 567 ft | 29 kts | 210° |
| 2026-05-05 20:46 | 32.89661 | -97.02801 | 573 ft | 26 kts | 179° |
| 2026-05-05 20:46 | 32.89484 | -97.02802 | 574 ft | 24 kts | 184° |
| 2026-05-05 20:46 | 32.89392 | -97.02840 | 571 ft | 10 kts | 271° |
| 2026-05-05 20:47 | 32.89394 | -97.02926 | 574 ft | 14 kts | 270° |
| 2026-05-05 20:47 | 32.89395 | -97.03043 | 575 ft | 16 kts | 270° |
| 2026-05-05 20:47 | 32.89394 | -97.03180 | 575 ft | 16 kts | 270° |
| 2026-05-05 20:47 | 32.89396 | -97.03314 | 584 ft | 16 kts | 270° |
| 2026-05-05 20:48 | 32.89396 | -97.03443 | 585 ft | 15 kts | 271° |
| 2026-05-05 20:48 | 32.89396 | -97.03566 | 585 ft | 15 kts | 271° |
| 2026-05-05 20:48 | 32.89398 | -97.03683 | 585 ft | 14 kts | 270° |
| 2026-05-05 20:48 | 32.89398 | -97.03790 | 585 ft | 12 kts | 270° |
| 2026-05-05 20:49 | 32.89359 | -97.03852 | 584 ft | 10 kts | 166° |
| 2026-05-05 20:49 | 32.89328 | -97.03844 | 584 ft | 1 kts | 170° |
| 2026-05-05 20:49 | 32.89327 | -97.03844 | 584 ft | 0 kts | 170° |